Time;durP1;ratioP1;P1;durP2;ratioP2;P2;SDS_P1;SDS_P2;PMS_P1;PMS_P2;Temp;Humidity;BMP_temperature;BMP_pressure;BME280_temperature;BME280_humidity;BME280_pressure;Samples;Min_cycle;Max_cycle;Signal;HPM_P1;HPM_P2
2021/03/08 00:00:46;;;;;;;;;;;;;;;0.86;88.98;102177.44;5041342;28;1459;-82
2021/03/08 00:03:13;;;;;;;;;;;;;;;0.70;89.13;102177.16;5042144;28;1812;-81
2021/03/08 00:05:39;;;;;;;;;;;;;;;0.53;89.26;102173.59;5041073;28;1785;-82
2021/03/08 00:08:05;;;;;;;;;;;;;;;0.38;89.34;102174.13;5042787;28;1846;-81
2021/03/08 00:10:31;;;;;;;;;;;;;;;0.32;90.11;102181.34;5042347;28;1889;-82
2021/03/08 00:12:56;;;;;;;;;;;;;;;0.29;90.44;102187.25;5043356;28;1012;-81
2021/03/08 00:15:22;;;;;;;;;;;;;;;0.29;90.74;102189.16;5046849;28;1755;-80
2021/03/08 00:17:48;;;;;;;;;;;;;;;0.29;90.80;102186.44;5040424;28;1957;-81
2021/03/08 00:20:16;;;;;;;;;;;;;;;0.26;91.02;102187.75;5041049;28;968;-81
2021/03/08 00:22:42;;;;;;;;;;;;;;;0.25;91.31;102188.81;5039263;28;1731;-81
2021/03/08 00:25:10;;;;;;;;;;;;;;;0.22;91.35;102194.72;5040104;28;1708;-82
2021/03/08 00:27:36;;;;;;;;;;;;;;;0.17;91.03;102194.63;5039891;28;1644;-81
2021/03/08 00:30:04;;;;;;;;;;;;;;;0.12;91.19;102191.81;5039958;28;1880;-81
2021/03/08 00:32:29;;;;;;;;;;;;;;;0.05;91.00;102191.94;5040757;28;1679;-81
2021/03/08 00:34:54;;;;;;;;;;;;;;;-0.11;91.17;102193.50;5040116;28;963;-81
2021/03/08 00:37:20;;;;;;;;;;;;;;;-0.31;90.74;102193.06;5039372;28;1939;-81
2021/03/08 00:39:45;;;;;;;;;;;;;;;-0.52;90.97;102187.19;5039559;28;1518;-81
2021/03/08 00:42:10;;;;;;;;;;;;;;;-0.69;90.67;102187.06;5039829;28;1003;-81
2021/03/08 00:44:36;;;;;;;;;;;;;;;-0.86;91.13;102192.34;5039616;28;1881;-81
2021/03/08 00:47:01;;;;;;;;;;;;;;;-1.04;91.27;102190.56;5040589;28;1809;-84
2021/03/08 00:49:26;;;;;;;;;;;;;;;-1.15;91.14;102188.63;5043838;28;1765;-81
2021/03/08 00:51:52;;;;;;;;;;;;;;;-1.15;91.90;102194.06;5041120;28;951;-82
2021/03/08 00:54:17;;;;;;;;;;;;;;;-1.27;91.58;102188.59;5040367;28;2034;-82
2021/03/08 00:56:42;;;;;;;;;;;;;;;-1.37;91.90;102194.59;5040062;28;1796;-82
2021/03/08 00:59:08;;;;;;;;;;;;;;;-1.46;91.71;102187.81;5039994;28;1907;-82
2021/03/08 01:01:33;;;;;;;;;;;;;;;-1.51;91.99;102184.97;5040279;28;1898;-81
2021/03/08 01:03:59;;;;;;;;;;;;;;;-1.57;92.30;102178.59;5039622;28;1817;-82
2021/03/08 01:06:24;;;;;;;;;;;;;;;-1.59;91.99;102188.00;5039307;28;1213;-81
2021/03/08 01:08:49;;;;;;;;;;;;;;;-1.60;92.35;102178.25;5036923;28;1607;-82
2021/03/08 01:11:16;;;;;;;;;;;;;;;-1.68;92.23;102182.06;5038413;28;1820;-81
2021/03/08 01:13:41;;;;;;;;;;;;;;;-1.77;91.91;102175.34;5039416;28;908;-81
2021/03/08 01:16:07;;;;;;;;;;;;;;;-1.77;91.90;102181.56;5038429;28;1644;-81
2021/03/08 01:18:32;;;;;;;;;;;;;;;-1.75;92.58;102174.06;5038209;28;1951;-81
2021/03/08 01:20:58;;;;;;;;;;;;;;;-1.86;92.08;102174.81;5039600;28;864;-81
2021/03/08 01:23:23;;;;;;;;;;;;;;;-1.95;92.36;102177.00;5038455;28;1644;-81
2021/03/08 01:25:49;;;;;;;;;;;;;;;-2.02;92.43;102178.97;5038658;28;1823;-81
2021/03/08 01:28:14;;;;;;;;;;;;;;;-2.02;92.33;102172.75;5038445;28;1246;-82
2021/03/08 01:30:42;;;;;;;;;;;;;;;-2.09;92.59;102170.94;5038725;28;1832;-81
2021/03/08 01:33:11;;;;;;;;;;;;;;;-2.21;92.59;102172.75;5037341;28;1621;-81
2021/03/08 01:35:37;;;;;;;;;;;;;;;-2.25;92.44;102174.22;5038796;28;1784;-81
2021/03/08 01:38:04;;;;;;;;;;;;;;;-2.33;92.56;102178.06;5038821;28;1961;-81
2021/03/08 01:40:32;;;;;;;;;;;;;;;-2.36;92.44;102178.50;5039009;28;1686;-81
2021/03/08 01:42:58;;;;;;;;;;;;;;;-2.42;92.63;102182.13;5039382;28;1478;-81
2021/03/08 01:45:24;;;;;;;;;;;;;;;-2.50;92.64;102191.34;5039666;28;1668;-82
2021/03/08 01:47:50;;;;;;;;;;;;;;;-2.54;92.97;102186.63;5038020;28;1231;-82
2021/03/08 01:50:28;;;;;;;;;;;;;;;-2.59;92.71;102187.28;5038423;28;1692;-81
2021/03/08 01:52:54;;;;;;;;;;;;;;;-2.63;92.59;102185.22;5038597;28;1526;-82
2021/03/08 01:55:21;;;;;;;;;;;;;;;-2.67;92.64;102176.75;5038795;28;929;-81
2021/03/08 01:57:47;;;;;;;;;;;;;;;-2.71;92.69;102183.66;5037968;28;1963;-81
2021/03/08 02:00:13;;;;;;;;;;;;;;;-2.76;92.73;102178.91;5038800;28;1708;-81
2021/03/08 02:02:41;;;;;;;;;;;;;;;-2.79;92.83;102175.81;5039271;28;915;-81
2021/03/08 02:05:09;;;;;;;;;;;;;;;-2.82;92.86;102182.50;5038111;28;1572;-81
2021/03/08 02:07:34;;;;;;;;;;;;;;;-2.85;92.83;102180.25;5038308;28;1561;-81
2021/03/08 02:09:59;;;;;;;;;;;;;;;-2.88;92.75;102180.66;5039631;28;1370;-80
2021/03/08 02:12:41;;;;;;;;;;;;;;;-2.91;92.94;102178.41;5039411;28;1636;-81
2021/03/08 02:15:21;;;;;;;;;;;;;;;-2.91;92.92;102173.81;5060110;28;1622;-80
2021/03/08 02:18:03;;;;;;;;;;;;;;;-2.93;92.97;102165.09;5059888;28;1896;-80
2021/03/08 02:20:45;;;;;;;;;;;;;;;-2.95;92.99;102174.50;5059739;28;1741;-82
2021/03/08 02:23:23;;;;;;;;;;;;;;;-2.97;92.89;102179.31;5060082;28;1676;-80
2021/03/08 02:26:21;;;;;;;;;;;;;;;-3.02;92.87;102174.53;5059604;28;1621;-80
2021/03/08 02:28:46;;;;;;;;;;;;;;;-3.05;93.11;102174.97;5039792;28;1326;-81
2021/03/08 02:31:24;;;;;;;;;;;;;;;-3.07;92.87;102174.38;5039856;28;1510;-81
2021/03/08 02:33:57;;;;;;;;;;;;;;;-3.10;93.10;102172.09;5037642;28;1788;-81
2021/03/08 02:36:28;;;;;;;;;;;;;;;-3.13;92.90;102176.09;5039947;28;928;-81
2021/03/08 02:39:35;;;;;;;;;;;;;;;-3.13;93.08;102167.97;5038865;28;1883;-81
2021/03/08 02:42:02;;;;;;;;;;;;;;;-3.16;92.81;102173.00;4982803;28;1658;-81
2021/03/08 02:44:35;;;;;;;;;;;;;;;-3.18;92.88;102166.97;4983280;28;1837;-81
2021/03/08 02:47:01;;;;;;;;;;;;;;;-3.22;93.09;102172.81;5011521;28;1065;-82
2021/03/08 02:49:29;;;;;;;;;;;;;;;-3.24;93.00;102169.50;5039100;28;1652;-81
2021/03/08 02:52:05;;;;;;;;;;;;;;;-3.24;93.20;102177.59;5038956;28;1576;-81
2021/03/08 02:54:33;;;;;;;;;;;;;;;-3.23;93.07;102176.56;5039443;28;1871;-80
2021/03/08 02:57:03;;;;;;;;;;;;;;;-3.24;93.30;102179.47;5039085;28;1597;-81
2021/03/08 02:59:35;;;;;;;;;;;;;;;-3.30;93.03;102173.09;5039710;28;1890;-81
2021/03/08 03:02:02;;;;;;;;;;;;;;;-3.32;93.18;102171.63;5039193;28;1644;-81
2021/03/08 03:04:28;;;;;;;;;;;;;;;-3.34;93.15;102169.19;5039139;28;1617;-80
2021/03/08 03:06:55;;;;;;;;;;;;;;;-3.40;93.18;102170.84;5039449;28;1825;-81
2021/03/08 03:09:22;;;;;;;;;;;;;;;-3.44;92.91;102176.94;5042709;28;1738;-80
2021/03/08 03:11:52;;;;;;;;;;;;;;;-3.45;93.11;102167.97;5036467;28;1569;-81
2021/03/08 03:14:20;;;;;;;;;;;;;;;-3.47;93.15;102180.06;5036925;28;985;-81
2021/03/08 03:16:47;;;;;;;;;;;;;;;-3.49;93.28;102176.75;5036011;28;1891;-81
2021/03/08 03:19:15;;;;;;;;;;;;;;;-3.55;93.14;102175.72;5036256;28;1934;-81
2021/03/08 03:21:43;;;;;;;;;;;;;;;-3.63;92.98;102174.13;5019528;28;1518;-80
2021/03/08 03:24:09;;;;;;;;;;;;;;;-3.66;93.11;102181.81;5039619;28;1806;-81
2021/03/08 03:26:36;;;;;;;;;;;;;;;-3.72;93.17;102174.56;5055432;28;1593;-81
2021/03/08 03:29:04;;;;;;;;;;;;;;;-3.74;93.22;102171.25;5048260;28;1353;-81
2021/03/08 03:31:32;;;;;;;;;;;;;;;-3.80;93.15;102175.66;5035353;28;1701;-81
2021/03/08 03:33:58;;;;;;;;;;;;;;;-3.84;93.03;102182.50;5036745;28;1589;-81
2021/03/08 03:36:27;;;;;;;;;;;;;;;-3.78;93.60;102184.38;5037232;28;1793;-81
2021/03/08 03:38:55;;;;;;;;;;;;;;;-3.87;93.31;102185.66;5036195;28;1871;-81
2021/03/08 03:41:20;;;;;;;;;;;;;;;-3.92;93.48;102188.16;5036272;28;1628;-81
2021/03/08 03:43:46;;;;;;;;;;;;;;;-3.92;93.21;102196.25;5036704;28;1841;-81
2021/03/08 03:46:11;;;;;;;;;;;;;;;-3.87;93.36;102199.97;5036810;28;1036;-80
2021/03/08 03:48:37;;;;;;;;;;;;;;;-3.83;93.56;102205.78;5036220;28;1692;-81
2021/03/08 03:51:03;;;;;;;;;;;;;;;-3.83;93.53;102205.78;5036803;28;1614;-81
2021/03/08 03:53:28;;;;;;;;;;;;;;;-3.80;93.41;102202.66;5036699;28;850;-81
2021/03/08 03:55:54;;;;;;;;;;;;;;;-3.82;93.41;102216.34;5036286;28;1656;-81
2021/03/08 03:58:34;;;;;;;;;;;;;;;-3.87;93.50;102213.47;5036053;28;1890;-81
2021/03/08 04:01:08;;;;;;;;;;;;;;;-3.89;93.83;102215.56;5036403;28;1845;-81
2021/03/08 04:03:41;;;;;;;;;;;;;;;-3.91;93.62;102214.09;5036302;28;2148;-81
2021/03/08 04:06:09;;;;;;;;;;;;;;;-3.87;93.54;102220.75;5036190;28;1909;-81
2021/03/08 04:08:38;;;;;;;;;;;;;;;-3.94;93.44;102228.88;5036660;28;1238;-80
2021/03/08 04:11:05;;;;;;;;;;;;;;;-3.99;93.34;102231.38;5036528;28;1704;-81
2021/03/08 04:13:32;;;;;;;;;;;;;;;-4.02;93.17;102227.22;5036859;28;1797;-81
2021/03/08 04:15:59;;;;;;;;;;;;;;;-3.93;93.64;102229.69;5036195;28;880;-81
2021/03/08 04:18:28;;;;;;;;;;;;;;;-3.99;93.47;102237.59;5036466;28;1894;-81
2021/03/08 04:20:57;;;;;;;;;;;;;;;-3.99;94.04;102234.88;5035971;28;1797;-81
2021/03/08 04:23:23;;;;;;;;;;;;;;;-3.98;93.92;102241.94;5029847;28;1589;-80
2021/03/08 04:25:49;;;;;;;;;;;;;;;-3.98;94.24;102239.25;5040370;28;1884;-80
2021/03/08 04:28:16;;;;;;;;;;;;;;;-3.91;94.50;102244.63;5039757;28;1578;-81
2021/03/08 04:30:46;;;;;;;;;;;;;;;-3.92;93.77;102250.25;5039900;28;1647;-81
2021/03/08 04:33:13;;;;;;;;;;;;;;;-3.94;93.99;102242.34;5039593;28;1855;-81
2021/03/08 04:35:40;;;;;;;;;;;;;;;-4.00;93.94;102244.03;5041099;28;1776;-80
2021/03/08 04:38:08;;;;;;;;;;;;;;;-4.04;93.98;102250.88;5039733;28;1909;-81
2021/03/08 04:40:35;;;;;;;;;;;;;;;-4.09;93.78;102252.56;5040438;28;1577;-81
2021/03/08 04:43:05;;;;;;;;;;;;;;;-4.07;93.82;102256.69;5040299;28;1829;-81
2021/03/08 04:45:32;;;;;;;;;;;;;;;-4.09;93.75;102263.34;5041115;28;849;-81
2021/03/08 04:47:58;;;;;;;;;;;;;;;-4.05;93.63;102267.28;5039417;28;1922;-80
2021/03/08 04:50:25;;;;;;;;;;;;;;;-4.10;94.01;102270.63;5039907;28;1704;-81
2021/03/08 04:52:52;;;;;;;;;;;;;;;-4.08;94.28;102271.25;5040399;28;993;-81
2021/03/08 04:55:20;;;;;;;;;;;;;;;-4.10;93.87;102273.34;5039853;28;1801;-81
2021/03/08 04:57:45;;;;;;;;;;;;;;;-4.10;94.14;102272.47;5039180;28;1953;-81
2021/03/08 05:00:13;;;;;;;;;;;;;;;-4.09;94.15;102274.97;5039940;28;1322;-80
2021/03/08 05:02:41;;;;;;;;;;;;;;;-3.98;93.78;102271.63;5040195;28;1697;-80
2021/03/08 05:05:08;;;;;;;;;;;;;;;-3.98;94.12;102277.03;5039953;28;1593;-80
2021/03/08 05:07:39;;;;;;;;;;;;;;;-3.94;93.73;102284.72;5038988;28;1006;-81
2021/03/08 05:10:08;;;;;;;;;;;;;;;-3.93;94.23;102279.09;5040881;28;1704;-80
2021/03/08 05:12:36;;;;;;;;;;;;;;;-3.90;94.18;102275.97;5040277;28;1824;-81
2021/03/08 05:15:05;;;;;;;;;;;;;;;-3.94;94.16;102273.94;5040677;28;858;-80
2021/03/08 05:17:32;;;;;;;;;;;;;;;-3.97;93.89;102273.28;5040775;28;1898;-81
2021/03/08 05:20:00;;;;;;;;;;;;;;;-4.04;94.08;102280.56;5049843;28;1724;-81
2021/03/08 05:22:26;;;;;;;;;;;;;;;-4.02;93.90;102283.06;5038889;28;1581;-81
2021/03/08 05:24:51;;;;;;;;;;;;;;;-4.07;93.92;102280.97;5037564;28;1514;-80
2021/03/08 05:27:18;;;;;;;;;;;;;;;-4.11;93.89;102284.31;5039088;28;1482;-80
2021/03/08 05:29:46;;;;;;;;;;;;;;;-4.10;93.97;102283.28;5038830;28;1302;-80
2021/03/08 05:32:18;;;;;;;;;;;;;;;-4.06;93.88;102282.66;5053954;28;1741;-80
2021/03/08 05:34:48;;;;;;;;;;;;;;;-4.10;94.28;102278.72;5039010;28;1573;-80
2021/03/08 05:37:14;;;;;;;;;;;;;;;-4.16;94.07;102285.78;5039215;28;1403;-81
2021/03/08 05:39:42;;;;;;;;;;;;;;;-4.20;93.95;102279.16;5039756;28;1938;-81
2021/03/08 05:42:13;;;;;;;;;;;;;;;-4.17;93.79;102278.72;5034563;28;1876;-80
2021/03/08 05:44:51;;;;;;;;;;;;;;;-4.13;93.95;102283.72;5029849;28;1649;-81
2021/03/08 05:47:16;;;;;;;;;;;;;;;-4.14;93.91;102288.25;5038965;28;1570;-81
2021/03/08 05:50:01;;;;;;;;;;;;;;;-4.17;93.80;102302.16;5039502;28;1325;-81
2021/03/08 05:52:32;;;;;;;;;;;;;;;-4.21;93.83;102301.75;5039104;28;1885;-81
2021/03/08 05:55:40;;;;;;;;;;;;;;;-4.26;93.75;102304.25;5038885;28;1917;-80
2021/03/08 05:58:46;;;;;;;;;;;;;;;-4.27;93.78;102304.47;5039052;28;1967;-81
2021/03/08 06:01:39;;;;;;;;;;;;;;;-4.21;93.81;102303.63;5039937;28;901;-81
2021/03/08 06:04:46;;;;;;;;;;;;;;;-4.18;93.83;102301.34;5020123;28;886;-81
2021/03/08 06:07:27;;;;;;;;;;;;;;;-4.10;93.73;102307.56;5029746;28;1807;-81
2021/03/08 06:10:03;;;;;;;;;;;;;;;-4.04;93.58;102304.84;5039181;28;1844;-81
2021/03/08 06:12:34;;;;;;;;;;;;;;;-4.00;93.60;102308.81;5039548;28;887;-81
2021/03/08 06:15:08;;;;;;;;;;;;;;;-3.93;93.74;102310.66;5038215;28;1503;-81
2021/03/08 06:17:37;;;;;;;;;;;;;;;-3.86;93.55;102317.72;5037551;28;1906;-81
2021/03/08 06:20:05;;;;;;;;;;;;;;;-3.76;93.70;102317.25;5039171;28;1684;-81
2021/03/08 06:22:32;;;;;;;;;;;;;;;-3.61;93.29;102325.13;5036914;28;1880;-81
2021/03/08 06:24:58;;;;;;;;;;;;;;;-3.28;93.42;102327.69;5038528;28;1828;-80
2021/03/08 06:27:25;;;;;;;;;;;;;;;-2.32;93.11;102325.84;5039368;28;983;-78
2021/03/08 06:29:51;;;;;;;;;;;;;;;-0.96;91.57;102322.25;5034612;28;1578;-77
2021/03/08 06:32:17;;;;;;;;;;;;;;;-0.48;88.90;102326.78;5035536;28;824;-77
2021/03/08 06:34:42;;;;;;;;;;;;;;;-0.31;88.60;102332.34;5035806;28;1804;-77
2021/03/08 06:37:09;;;;;;;;;;;;;;;-0.86;88.64;102329.84;5033948;28;1684;-78
2021/03/08 06:39:39;;;;;;;;;;;;;;;-1.00;89.47;102326.50;5035097;28;2034;-77
2021/03/08 06:42:05;;;;;;;;;;;;;;;-0.78;89.90;102329.50;5035033;28;1700;-77
2021/03/08 06:44:32;;;;;;;;;;;;;;;-0.27;89.12;102327.28;5034691;28;1637;-77
2021/03/08 06:46:58;;;;;;;;;;;;;;;1.13;86.31;102328.09;5035737;28;852;-77
2021/03/08 06:49:24;;;;;;;;;;;;;;;3.81;80.69;102326.09;5035447;28;1970;-77
2021/03/08 06:52:12;;;;;;;;;;;;;;;5.19;78.29;102335.00;5037344;28;1781;-80
2021/03/08 06:54:43;;;;;;;;;;;;;;;6.99;71.64;102333.88;5039199;28;1474;-80
2021/03/08 06:57:31;;;;;;;;;;;;;;;8.37;70.62;102326.44;5037764;28;1641;-80
2021/03/08 07:00:00;;;;;;;;;;;;;;;8.70;67.92;102330.19;5038920;28;1912;-80
2021/03/08 07:02:41;;;;;;;;;;;;;;;9.71;66.11;102322.66;5039814;28;919;-80
2021/03/08 07:05:08;;;;;;;;;;;;;;;10.74;62.68;102340.88;5037796;28;1813;-80
2021/03/08 07:07:59;;;;;;;;;;;;;;;11.54;61.21;102340.47;5038061;28;1656;-80
2021/03/08 07:10:42;;;;;;;;;;;;;;;11.78;56.74;102341.00;5038778;28;2168;-80
2021/03/08 07:13:10;;;;;;;;;;;;;;;12.51;50.32;102328.81;5039350;28;1804;-80
2021/03/08 07:15:56;;;;;;;;;;;;;;;12.08;47.78;102337.75;5045470;28;1319;-81
2021/03/08 07:18:22;;;;;;;;;;;;;;;11.88;45.81;102344.63;5048972;28;1941;-81
2021/03/08 07:21:19;;;;;;;;;;;;;;;12.66;44.51;102336.69;5038365;28;834;-80
2021/03/08 07:23:46;;;;;;;;;;;;;;;12.74;43.77;102344.22;5036997;28;1638;-81
2021/03/08 07:26:15;;;;;;;;;;;;;;;13.08;38.61;102334.34;5041667;28;864;-82
2021/03/08 07:28:41;;;;;;;;;;;;;;;13.04;42.05;102340.88;5041415;28;1585;-81
2021/03/08 07:31:08;;;;;;;;;;;;;;;12.30;38.38;102343.28;5046848;28;1028;-82
2021/03/08 07:33:33;;;;;;;;;;;;;;;11.90;42.14;102342.38;5039757;28;1597;-81
2021/03/08 07:35:59;;;;;;;;;;;;;;;11.55;39.52;102342.13;5040789;28;1020;-81
2021/03/08 07:38:30;;;;;;;;;;;;;;;12.13;38.43;102349.53;5039340;28;1894;-81
2021/03/08 07:41:10;;;;;;;;;;;;;;;11.45;38.82;102345.94;5039630;28;814;-82
2021/03/08 07:43:36;;;;;;;;;;;;;;;9.58;41.98;102349.88;5038294;28;1704;-81
2021/03/08 07:46:01;;;;;;;;;;;;;;;9.75;40.90;102354.03;5038587;28;1777;-83
2021/03/08 07:48:27;;;;;;;;;;;;;;;9.88;41.13;102356.03;5039769;28;1660;-81
2021/03/08 07:50:53;;;;;;;;;;;;;;;9.30;42.15;102361.91;5042829;28;1573;-82
2021/03/08 07:53:27;;;;;;;;;;;;;;;10.66;41.20;102358.22;5043750;28;1071;-81
2021/03/08 07:55:55;;;;;;;;;;;;;;;12.57;36.64;102358.03;5041736;28;1711;-82
2021/03/08 07:58:20;;;;;;;;;;;;;;;13.11;35.29;102361.41;5042675;28;1913;-82
2021/03/08 08:00:45;;;;;;;;;;;;;;;12.16;35.32;102368.28;5037669;28;1705;-82
2021/03/08 08:03:11;;;;;;;;;;;;;;;12.03;35.06;102369.19;5021746;28;849;-83
2021/03/08 08:05:38;;;;;;;;;;;;;;;12.52;35.00;102352.63;5029361;28;1599;-83
2021/03/08 08:08:06;;;;;;;;;;;;;;;14.05;33.64;102348.97;5044606;28;1696;-82
2021/03/08 08:10:33;;;;;;;;;;;;;;;14.25;32.61;102348.25;5044813;28;1719;-81
2021/03/08 08:13:02;;;;;;;;;;;;;;;12.21;34.31;102350.69;5043632;28;996;-81
2021/03/08 08:15:27;;;;;;;;;;;;;;;13.28;34.86;102341.19;5045106;28;1973;-82
2021/03/08 08:17:55;;;;;;;;;;;;;;;14.14;34.04;102343.41;5045080;28;1898;-82
2021/03/08 08:20:23;;;;;;;;;;;;;;;15.28;30.64;102347.22;5045834;28;1702;-82
2021/03/08 08:22:56;;;;;;;;;;;;;;;14.50;30.26;102351.28;5040728;28;1557;-82
2021/03/08 08:25:22;;;;;;;;;;;;;;;15.42;31.76;102355.28;5044520;28;972;-81
2021/03/08 08:27:48;;;;;;;;;;;;;;;15.39;31.57;102351.19;5043823;28;1843;-81
2021/03/08 08:30:19;;;;;;;;;;;;;;;14.32;30.51;102339.41;5041590;28;1909;-82
2021/03/08 08:32:53;;;;;;;;;;;;;;;14.73;30.13;102349.06;5041088;28;865;-82
2021/03/08 08:35:24;;;;;;;;;;;;;;;16.85;29.39;102341.91;5044145;28;1711;-83
2021/03/08 08:38:07;;;;;;;;;;;;;;;14.40;29.67;102351.66;5043319;28;1879;-84
2021/03/08 08:40:38;;;;;;;;;;;;;;;14.74;28.94;102347.91;5024755;28;980;-83
2021/03/08 08:43:15;;;;;;;;;;;;;;;13.24;30.70;102345.78;5024276;28;1593;-83
2021/03/08 08:45:46;;;;;;;;;;;;;;;12.52;32.01;102358.97;5040968;28;885;-80
2021/03/08 08:48:12;;;;;;;;;;;;;;;14.36;30.55;102354.28;5040706;28;1658;-81
2021/03/08 08:50:54;;;;;;;;;;;;;;;14.83;29.37;102350.66;5041271;28;976;-80
2021/03/08 08:53:35;;;;;;;;;;;;;;;16.41;28.28;102345.25;5040562;28;1750;-81
2021/03/08 08:56:01;;;;;;;;;;;;;;;15.54;27.41;102348.97;5041795;28;1708;-81
2021/03/08 08:58:28;;;;;;;;;;;;;;;14.88;27.80;102356.00;5040400;28;1956;-80
2021/03/08 09:01:14;;;;;;;;;;;;;;;14.27;28.50;102350.69;5040246;28;896;-81
2021/03/08 09:04:09;;;;;;;;;;;;;;;13.57;30.03;102350.06;5040092;28;1804;-81
2021/03/08 09:07:00;;;;;;;;;;;;;;;13.49;30.03;102352.47;5039299;28;984;-81
2021/03/08 09:09:28;;;;;;;;;;;;;;;15.46;28.58;102344.28;5039838;28;1815;-81
2021/03/08 09:11:59;;;;;;;;;;;;;;;17.42;25.99;102338.06;5039954;28;968;-81
2021/03/08 09:14:34;;;;;;;;;;;;;;;16.22;25.01;102347.81;5039423;28;1955;-81
2021/03/08 09:17:11;;;;;;;;;;;;;;;16.35;25.44;102343.84;5039949;28;837;-81
2021/03/08 09:19:38;;;;;;;;;;;;;;;17.92;24.34;102341.44;5039820;28;1879;-81
2021/03/08 09:22:21;;;;;;;;;;;;;;;18.13;24.20;102343.97;5040302;28;977;-81
2021/03/08 09:24:52;;;;;;;;;;;;;;;15.59;25.16;102352.34;5040071;28;1625;-81
2021/03/08 09:27:30;;;;;;;;;;;;;;;16.70;24.71;102354.56;5039813;28;1837;-81
2021/03/08 09:30:09;;;;;;;;;;;;;;;16.75;22.64;102340.38;5020104;28;1231;-81
2021/03/08 09:32:36;;;;;;;;;;;;;;;16.79;23.41;102338.50;5022603;28;1848;-82
2021/03/08 09:35:05;;;;;;;;;;;;;;;19.12;21.44;102338.38;5040516;28;1553;-81
2021/03/08 09:37:31;;;;;;;;;;;;;;;18.14;22.58;102350.41;5040169;28;1168;-82
2021/03/08 09:39:58;;;;;;;;;;;;;;;17.28;23.60;102343.19;5039562;28;1953;-83
2021/03/08 09:42:32;;;;;;;;;;;;;;;18.62;22.08;102340.00;5039680;28;1874;-82
2021/03/08 09:44:57;;;;;;;;;;;;;;;18.66;21.41;102346.50;5039769;28;834;-80
2021/03/08 09:47:38;;;;;;;;;;;;;;;17.99;21.39;102346.41;5039229;28;1624;-80
2021/03/08 09:50:04;;;;;;;;;;;;;;;20.18;18.87;102340.06;5040493;28;1346;-80
2021/03/08 09:52:41;;;;;;;;;;;;;;;19.72;19.84;102346.41;5038867;28;1720;-80
2021/03/08 09:55:09;;;;;;;;;;;;;;;19.14;19.77;102344.41;5039706;28;874;-79
2021/03/08 09:57:40;;;;;;;;;;;;;;;20.44;18.52;102339.28;5039106;28;1871;-80
2021/03/08 10:00:08;;;;;;;;;;;;;;;21.98;17.77;102334.09;5039349;28;1258;-80
2021/03/08 10:02:33;;;;;;;;;;;;;;;20.95;19.32;102337.28;5039483;28;1645;-79
2021/03/08 10:05:00;;;;;;;;;;;;;;;21.40;17.37;102327.03;5039224;28;884;-80
2021/03/08 10:07:26;;;;;;;;;;;;;;;20.21;18.53;102339.31;5039319;28;1609;-80
2021/03/08 10:10:14;;;;;;;;;;;;;;;19.26;18.93;102337.88;5039035;28;1779;-80
2021/03/08 10:12:40;;;;;;;;;;;;;;;19.45;19.28;102337.06;5039171;28;918;-79
2021/03/08 10:15:09;;;;;;;;;;;;;;;17.73;19.79;102332.91;5037344;28;1653;-79
2021/03/08 10:17:50;;;;;;;;;;;;;;;20.99;17.83;102333.34;5038138;28;869;-79
2021/03/08 10:20:16;;;;;;;;;;;;;;;18.30;19.60;102336.44;5041234;28;798;-80
2021/03/08 10:22:41;;;;;;;;;;;;;;;18.47;20.58;102338.03;5041630;28;1000;-80
2021/03/08 10:25:27;;;;;;;;;;;;;;;19.94;18.29;102337.63;5042250;28;1609;-80
2021/03/08 10:27:52;;;;;;;;;;;;;;;19.66;17.91;102333.06;5022571;28;1357;-81
2021/03/08 10:30:19;;;;;;;;;;;;;;;19.24;17.35;102334.63;5036208;28;1743;-79
2021/03/08 10:32:45;;;;;;;;;;;;;;;19.85;18.15;102340.69;5039756;28;1075;-79
2021/03/08 10:35:12;;;;;;;;;;;;;;;22.07;16.66;102336.59;5039966;28;1875;-81
2021/03/08 10:37:40;;;;;;;;;;;;;;;19.76;17.29;102340.09;5047665;28;1906;-80
2021/03/08 10:40:07;;;;;;;;;;;;;;;16.23;20.66;102341.06;5042023;28;1877;-79
2021/03/08 10:42:33;;;;;;;;;;;;;;;18.25;19.82;102345.88;5038404;28;1194;-79
2021/03/08 10:44:59;;;;;;;;;;;;;;;18.57;19.64;102343.09;5039081;28;1914;-79
2021/03/08 10:47:25;;;;;;;;;;;;;;;19.35;18.78;102340.47;5038342;28;1048;-78
2021/03/08 10:49:52;;;;;;;;;;;;;;;20.01;18.55;102340.56;5038604;28;1526;-80
2021/03/08 10:52:18;;;;;;;;;;;;;;;22.59;15.82;102331.81;5039016;28;891;-80
2021/03/08 10:54:44;;;;;;;;;;;;;;;20.44;15.85;102332.88;5038744;28;1820;-80
2021/03/08 10:57:09;;;;;;;;;;;;;;;20.63;15.84;102329.19;5037968;28;891;-79
2021/03/08 10:59:44;;;;;;;;;;;;;;;21.81;15.86;102331.94;5039410;28;1895;-80
2021/03/08 11:02:10;;;;;;;;;;;;;;;19.70;15.70;102331.16;5038451;28;926;-80
2021/03/08 11:04:38;;;;;;;;;;;;;;;18.52;15.62;102324.59;5039831;28;1597;-79
2021/03/08 11:07:03;;;;;;;;;;;;;;;19.73;16.68;102330.41;5038415;28;1592;-80
2021/03/08 11:09:31;;;;;;;;;;;;;;;22.82;13.21;102313.88;5019074;28;1255;-80
2021/03/08 11:11:58;;;;;;;;;;;;;;;21.58;15.27;102322.44;5019502;28;1757;-80
2021/03/08 11:14:27;;;;;;;;;;;;;;;19.10;16.16;102325.91;5039738;28;1704;-80
2021/03/08 11:16:55;;;;;;;;;;;;;;;19.58;15.72;102326.50;5040407;28;1577;-79
2021/03/08 11:19:23;;;;;;;;;;;;;;;18.57;16.51;102323.50;5039621;28;1952;-80
2021/03/08 11:22:05;;;;;;;;;;;;;;;20.46;14.68;102327.69;5037879;28;1713;-79
2021/03/08 11:24:31;;;;;;;;;;;;;;;20.94;14.34;102325.25;5040776;28;771;-80
2021/03/08 11:27:24;;;;;;;;;;;;;;;21.97;13.64;102329.66;5040556;28;1655;-81
2021/03/08 11:30:03;;;;;;;;;;;;;;;22.95;13.25;102328.44;5039039;28;1322;-81
2021/03/08 11:32:38;;;;;;;;;;;;;;;20.93;13.68;102325.63;5038695;28;1697;-80
2021/03/08 11:35:25;;;;;;;;;;;;;;;22.34;14.48;102320.41;5039279;28;1677;-80
2021/03/08 11:37:57;;;;;;;;;;;;;;;21.25;14.15;102319.59;5050969;28;1936;-81
2021/03/08 11:40:54;;;;;;;;;;;;;;;20.35;14.65;102310.69;5055101;28;1625;-81
2021/03/08 11:43:22;;;;;;;;;;;;;;;21.26;13.76;102305.19;5055549;28;1044;-81
2021/03/08 11:45:49;;;;;;;;;;;;;;;22.18;12.90;102300.94;5053250;28;1673;-81
2021/03/08 11:48:14;;;;;;;;;;;;;;;21.82;14.18;102305.41;5050086;28;1279;-83
2021/03/08 11:50:41;;;;;;;;;;;;;;;25.94;12.16;102290.34;5045628;28;1918;-80
2021/03/08 11:53:08;;;;;;;;;;;;;;;24.20;10.89;102300.63;5042334;28;952;-80
2021/03/08 11:55:38;;;;;;;;;;;;;;;25.24;10.81;102299.56;5039458;28;1815;-81
2021/03/08 11:58:04;;;;;;;;;;;;;;;23.30;11.99;102290.38;5021626;28;1891;-81
2021/03/08 12:00:29;;;;;;;;;;;;;;;23.67;12.10;102290.09;5040376;28;1788;-80
2021/03/08 12:02:54;;;;;;;;;;;;;;;19.86;14.42;102297.44;5038524;28;970;-80
2021/03/08 12:05:20;;;;;;;;;;;;;;;20.27;15.40;102303.34;5034978;28;1649;-80
2021/03/08 12:07:46;;;;;;;;;;;;;;;23.19;12.88;102276.28;5018280;28;845;-80
2021/03/08 12:10:13;;;;;;;;;;;;;;;21.83;13.50;102278.94;5031841;28;1715;-80
2021/03/08 12:12:50;;;;;;;;;;;;;;;22.56;12.74;102273.50;5040223;28;972;-81
2021/03/08 12:15:16;;;;;;;;;;;;;;;21.93;13.16;102272.59;5039310;28;1557;-81
2021/03/08 12:17:56;;;;;;;;;;;;;;;23.94;12.44;102273.63;5040081;28;1947;-81
2021/03/08 12:28:36;;;;;;;;;;;;;;;19.17;14.31;102272.88;5001473;28;1546;-84
2021/03/08 12:30:36;;;;;;;;;;;;;;;21.21;12.67;102263.38;5035370;28;1734;-73
2021/03/08 12:33:02;;;;;;;;;;;;;;;23.74;11.91;102261.06;5033705;28;1688;-71
2021/03/08 12:35:27;;;;;;;;;;;;;;;20.82;13.09;102256.09;5033993;28;864;-71
2021/03/08 12:37:52;;;;;;;;;;;;;;;21.43;12.43;102253.22;5033816;28;1899;-71
2021/03/08 12:40:18;;;;;;;;;;;;;;;20.07;12.87;102261.38;5033699;28;1619;-71
2021/03/08 12:42:43;;;;;;;;;;;;;;;22.88;11.92;102244.72;5034877;28;968;-71
2021/03/08 12:45:09;;;;;;;;;;;;;;;23.53;12.51;102240.09;5037567;28;1640;-70
2021/03/08 12:47:34;;;;;;;;;;;;;;;23.03;12.54;102240.78;5037566;28;1553;-71
2021/03/08 12:49:59;;;;;;;;;;;;;;;23.13;12.48;102235.59;5038022;28;1351;-71
2021/03/08 12:52:24;;;;;;;;;;;;;;;21.90;12.79;102234.81;5037390;28;1577;-70
2021/03/08 12:54:50;;;;;;;;;;;;;;;19.41;14.84;102243.75;5037049;28;1027;-70
2021/03/08 12:57:18;;;;;;;;;;;;;;;19.18;15.44;102246.50;5038959;28;1608;-83
2021/03/08 12:59:44;;;;;;;;;;;;;;;21.61;13.42;102230.94;5042183;28;1879;-82
2021/03/08 13:02:09;;;;;;;;;;;;;;;16.83;16.27;102244.59;5040828;28;1504;-82
2021/03/08 13:04:35;;;;;;;;;;;;;;;15.73;17.67;102249.03;5040936;28;851;-84
2021/03/08 13:07:00;;;;;;;;;;;;;;;15.30;17.72;102250.28;5040583;28;1596;-83
2021/03/08 13:09:26;;;;;;;;;;;;;;;15.19;18.00;102243.50;5041866;28;2123;-84
2021/03/08 13:11:51;;;;;;;;;;;;;;;15.44;18.89;102251.97;5042209;28;927;-83